createdAt,value
2018-03-16T00:00:49.320Z,55.65
2018-03-16T00:03:18.682Z,55.68
2018-03-16T00:05:48.042Z,55.60
2018-03-16T00:08:17.203Z,55.36
2018-03-16T00:10:46.784Z,55.42
2018-03-16T00:13:15.903Z,55.41
2018-03-16T00:15:45.340Z,55.58
2018-03-16T00:18:14.586Z,55.46
2018-03-16T00:20:43.607Z,55.79
2018-03-16T00:26:07.784Z,55.58
2018-03-16T00:28:36.788Z,55.46
2018-03-16T00:31:06.309Z,55.51
2018-03-16T00:33:35.567Z,55.27
2018-03-16T00:36:04.994Z,55.22
2018-03-16T00:38:34.123Z,55.48
2018-03-16T00:41:03.011Z,55.58
2018-03-16T00:43:32.113Z,55.80
2018-03-16T00:46:01.418Z,56.12
2018-03-16T00:48:30.534Z,56.67
2018-03-16T00:51:00.086Z,56.97
2018-03-16T00:53:29.392Z,57.18
2018-03-16T00:55:58.491Z,58.30
2018-03-16T00:58:28.980Z,58.06
2018-03-16T01:00:59.048Z,58.39
2018-03-16T01:03:28.335Z,58.35
2018-03-16T01:05:57.715Z,58.44
2018-03-16T01:08:27.011Z,59.06
2018-03-16T01:10:56.597Z,58.75
2018-03-16T01:13:25.921Z,58.89
2018-03-16T01:15:55.109Z,58.39
2018-03-16T01:18:24.291Z,57.29
2018-03-16T01:20:54.673Z,57.47
2018-03-16T01:23:23.970Z,57.43
2018-03-16T01:25:53.045Z,57.75
2018-03-16T01:28:21.913Z,57.55
2018-03-16T01:30:51.653Z,57.13
2018-03-16T01:33:20.903Z,56.94
2018-03-16T01:35:50.119Z,57.33
2018-03-16T01:38:19.468Z,56.79
2018-03-16T01:40:48.576Z,56.73
2018-03-16T01:43:17.564Z,56.54
2018-03-16T01:45:46.816Z,56.71
2018-03-16T01:48:15.823Z,56.58
2018-03-16T01:50:45.148Z,57.02
2018-03-16T01:53:18.478Z,56.91
2018-03-16T01:55:47.635Z,56.05
2018-03-16T01:58:16.616Z,54.84
2018-03-16T02:00:45.891Z,53.71
2018-03-16T02:03:15.795Z,52.75
2018-03-16T02:05:44.956Z,52.15
2018-03-16T02:08:14.339Z,52.05
2018-03-16T02:10:43.456Z,51.43
2018-03-16T02:13:12.632Z,50.93
2018-03-16T02:15:41.782Z,50.36
2018-03-16T02:18:10.879Z,49.51
2018-03-16T02:20:40.197Z,49.25
2018-03-16T02:23:09.471Z,49.04
2018-03-16T02:25:38.835Z,48.02
2018-03-16T02:28:07.868Z,47.41
2018-03-16T02:30:37.024Z,47.43
2018-03-16T02:33:06.140Z,46.95
2018-03-16T02:35:35.115Z,46.31
2018-03-16T02:38:04.420Z,46.07
2018-03-16T02:40:33.515Z,45.33
2018-03-16T02:43:02.380Z,44.85
2018-03-16T02:45:31.413Z,44.62
2018-03-16T02:48:00.469Z,45.71
2018-03-16T02:50:29.916Z,44.31
2018-03-16T02:52:59.207Z,44.40
2018-03-16T02:55:28.035Z,43.35
2018-03-16T02:57:56.755Z,42.79
2018-03-16T03:00:26.025Z,43.73
2018-03-16T03:02:55.146Z,43.34
2018-03-16T03:05:25.849Z,42.67
2018-03-16T03:07:54.776Z,42.54
2018-03-16T03:10:24.101Z,42.63
2018-03-16T03:12:53.273Z,42.32
2018-03-16T03:15:22.530Z,41.25
2018-03-16T03:17:51.694Z,40.93
2018-03-16T03:20:20.566Z,40.11
2018-03-16T03:22:49.603Z,40.99
2018-03-16T03:25:18.926Z,39.86
2018-03-16T03:27:48.048Z,39.46
2018-03-16T03:30:17.147Z,38.37
2018-03-16T03:32:46.450Z,38.28
2018-03-16T03:35:15.594Z,39.91
2018-03-16T03:37:44.624Z,38.63
2018-03-16T03:40:14.177Z,37.60
2018-03-16T03:42:43.700Z,38.80
2018-03-16T03:45:13.071Z,39.54
2018-03-16T03:47:42.320Z,39.16
2018-03-16T03:50:11.403Z,40.25
2018-03-16T03:52:40.789Z,41.02
2018-03-16T03:55:09.737Z,40.74
2018-03-16T03:57:39.046Z,41.57
2018-03-16T04:00:08.565Z,40.84
2018-03-16T04:02:37.943Z,40.49
2018-03-16T04:05:07.408Z,39.58
2018-03-16T04:07:36.361Z,37.88
2018-03-16T04:10:05.496Z,38.41
2018-03-16T04:12:34.904Z,37.59
2018-03-16T04:15:04.333Z,37.89
2018-03-16T04:17:33.718Z,37.02
2018-03-16T04:20:04.098Z,36.12
2018-03-16T04:22:33.199Z,35.21
2018-03-16T04:25:02.672Z,34.67
2018-03-16T04:27:31.949Z,36.22
2018-03-16T04:30:01.203Z,35.84
2018-03-16T04:34:56.571Z,34.34
2018-03-16T04:37:25.544Z,32.88
2018-03-16T04:39:54.715Z,32.88
2018-03-16T04:43:32.223Z,33.37
2018-03-16T04:46:01.260Z,33.65
2018-03-16T04:48:30.559Z,31.52
2018-03-16T04:50:59.786Z,32.73
2018-03-16T04:53:29.087Z,32.76
2018-03-16T04:55:59.794Z,32.26
2018-03-16T04:58:29.250Z,31.71
2018-03-16T05:00:58.893Z,30.73
2018-03-16T05:03:28.307Z,32.41
2018-03-16T05:05:57.537Z,34.76
2018-03-16T05:08:26.698Z,35.84
2018-03-16T05:10:56.016Z,36.00
2018-03-16T05:13:25.617Z,36.68
2018-03-16T05:15:54.829Z,38.18
2018-03-16T05:18:24.386Z,37.49
2018-03-16T05:20:54.136Z,38.56
2018-03-16T05:23:23.448Z,39.62
2018-03-16T05:25:52.882Z,38.88
2018-03-16T05:28:22.172Z,39.21
2018-03-16T05:30:51.330Z,39.76
2018-03-16T05:33:20.591Z,38.39
2018-03-16T05:35:49.806Z,38.92
2018-03-16T05:38:19.041Z,39.35
2018-03-16T05:40:48.053Z,40.07
2018-03-16T05:43:17.352Z,39.43
2018-03-16T05:45:46.616Z,39.71
2018-03-16T05:48:15.930Z,39.68
2018-03-16T05:50:45.333Z,38.28
2018-03-16T05:53:14.355Z,36.49
2018-03-16T05:55:43.648Z,35.72
2018-03-16T05:58:12.837Z,35.94
2018-03-16T06:00:42.370Z,36.62
2018-03-16T06:03:11.356Z,37.06
2018-03-16T06:05:40.613Z,38.25
2018-03-16T06:08:10.085Z,38.32
2018-03-16T06:10:39.225Z,38.48
2018-03-16T06:13:08.685Z,38.47
2018-03-16T06:15:37.759Z,39.80
2018-03-16T06:18:06.754Z,38.98
2018-03-16T06:20:35.875Z,38.73
2018-03-16T06:23:06.470Z,38.88
2018-03-16T06:25:35.921Z,38.97
2018-03-16T06:28:05.355Z,39.11
2018-03-16T06:30:34.546Z,38.42
2018-03-16T06:33:03.630Z,37.99
2018-03-16T06:35:33.150Z,37.85
2018-03-16T06:38:02.152Z,37.28
2018-03-16T06:42:46.634Z,36.87
2018-03-16T06:45:19.461Z,36.64
2018-03-16T06:47:49.042Z,37.08
2018-03-16T06:50:18.312Z,37.50
2018-03-16T06:52:47.588Z,37.61
2018-03-16T06:55:16.992Z,38.22
2018-03-16T06:57:46.226Z,38.16
2018-03-16T07:00:15.163Z,38.39
2018-03-16T07:02:44.880Z,38.40
2018-03-16T07:05:14.326Z,38.74
2018-03-16T07:07:43.444Z,38.62
2018-03-16T07:10:12.581Z,38.78
2018-03-16T07:12:42.001Z,38.87
2018-03-16T07:18:13.787Z,37.93
2018-03-16T07:20:42.947Z,38.02
2018-03-16T07:23:12.234Z,37.74
2018-03-16T07:25:41.606Z,37.45
2018-03-16T07:28:11.095Z,37.30
2018-03-16T07:30:40.141Z,37.44
2018-03-16T07:33:10.013Z,36.97
2018-03-16T07:35:39.453Z,37.15
2018-03-16T07:38:09.130Z,37.50
2018-03-16T07:40:39.033Z,37.48
2018-03-16T07:43:08.399Z,37.13
2018-03-16T07:45:44.350Z,37.51
2018-03-16T07:48:13.443Z,37.26
2018-03-16T07:50:42.593Z,36.70
2018-03-16T07:53:11.701Z,37.23
2018-03-16T07:55:41.243Z,36.10
2018-03-16T07:58:10.653Z,36.74
2018-03-16T08:00:40.236Z,36.70
2018-03-16T08:03:09.326Z,35.15
2018-03-16T08:08:29.140Z,33.96
2018-03-16T08:10:58.275Z,33.49
2018-03-16T08:13:27.180Z,33.14
2018-03-16T08:15:56.671Z,33.19
2018-03-16T08:18:25.829Z,32.67
2018-03-16T08:20:55.135Z,33.05
2018-03-16T08:23:24.701Z,35.20
2018-03-16T08:25:53.556Z,35.72
2018-03-16T08:28:22.729Z,35.52
2018-03-16T08:33:06.119Z,35.40
2018-03-16T08:35:36.436Z,34.72
2018-03-16T08:38:05.873Z,34.07
2018-03-16T08:40:39.394Z,33.47
2018-03-16T08:43:08.925Z,33.61
2018-03-16T08:45:38.136Z,34.04
2018-03-16T08:48:07.191Z,33.36
2018-03-16T08:50:36.458Z,33.54
2018-03-16T08:53:05.414Z,34.70
2018-03-16T08:55:34.512Z,34.82
2018-03-16T08:58:03.674Z,35.58
2018-03-16T09:00:33.114Z,35.36
2018-03-16T09:03:02.184Z,34.47
2018-03-16T09:07:54.335Z,34.76
2018-03-16T09:10:23.794Z,34.96
2018-03-16T09:12:54.193Z,35.51
2018-03-16T09:15:23.309Z,35.36
2018-03-16T09:17:52.579Z,35.16
2018-03-16T09:20:21.784Z,35.43
2018-03-16T09:22:50.991Z,35.29
2018-03-16T09:25:20.133Z,35.06
2018-03-16T09:27:49.029Z,34.65
2018-03-16T09:30:19.074Z,34.75
2018-03-16T09:32:48.306Z,34.60
2018-03-16T09:35:18.574Z,34.62
2018-03-16T09:37:49.369Z,34.53
2018-03-16T09:40:18.550Z,34.27
2018-03-16T09:42:47.930Z,34.65
2018-03-16T09:45:19.124Z,34.15
2018-03-16T09:47:48.529Z,34.04
2018-03-16T09:50:18.218Z,33.44
2018-03-16T09:52:47.391Z,33.25
2018-03-16T09:58:20.890Z,32.98
2018-03-16T10:00:50.822Z,32.67
2018-03-16T10:03:20.662Z,31.41
2018-03-16T10:05:49.826Z,32.23
2018-03-16T10:08:19.068Z,32.02
2018-03-16T10:10:48.325Z,31.99
2018-03-16T10:13:17.323Z,32.31
2018-03-16T10:15:46.619Z,32.46
2018-03-16T10:18:16.191Z,32.68
2018-03-16T10:20:45.485Z,32.26
2018-03-16T10:23:14.832Z,31.86
2018-03-16T10:25:43.839Z,32.62
2018-03-16T10:28:12.997Z,33.35
2018-03-16T10:30:42.063Z,33.51
2018-03-16T10:33:11.620Z,33.86
2018-03-16T10:35:40.781Z,33.49
2018-03-16T10:38:09.961Z,32.94
2018-03-16T10:40:39.640Z,32.95
2018-03-16T10:43:08.901Z,32.74
2018-03-16T15:59:20.798Z,46.89
2018-03-16T16:01:50.009Z,46.85
2018-03-16T16:04:19.136Z,46.99
2018-03-16T16:06:48.149Z,47.05
2018-03-16T16:09:17.302Z,47.55
2018-03-16T16:11:46.392Z,47.08
2018-03-16T16:14:15.369Z,47.23
2018-03-16T16:16:44.673Z,47.48
2018-03-16T16:19:14.310Z,47.82
2018-03-16T16:21:43.527Z,47.88
2018-03-16T16:24:12.710Z,47.90
2018-03-16T16:26:41.719Z,48.21
2018-03-16T16:29:10.804Z,48.27
2018-03-16T16:31:40.030Z,48.75
2018-03-16T16:34:09.271Z,51.98
2018-03-16T16:36:58.363Z,45.95
2018-03-16T16:39:27.621Z,44.46
2018-03-16T16:41:57.210Z,43.56
2018-03-16T16:44:27.388Z,42.91
2018-03-16T16:46:56.628Z,42.15
2018-03-16T16:49:26.286Z,41.61
2018-03-16T16:51:55.593Z,41.20
2018-03-16T16:54:32.910Z,40.89
2018-03-16T16:57:02.562Z,40.21
2018-03-16T16:59:32.758Z,40.07
2018-03-16T17:02:02.945Z,40.17
2018-03-16T17:04:32.530Z,39.86
2018-03-16T17:07:01.974Z,39.47
2018-03-16T17:09:31.868Z,39.13
2018-03-16T17:12:01.351Z,38.93
2018-03-16T17:14:30.450Z,39.12
2018-03-16T17:16:59.726Z,38.90
2018-03-16T17:19:29.604Z,38.83
2018-03-16T17:21:59.069Z,38.86
2018-03-16T17:24:28.550Z,38.89
2018-03-16T17:26:57.993Z,38.83
2018-03-16T17:29:29.278Z,38.75
2018-03-16T17:31:58.846Z,38.70
2018-03-16T17:34:28.511Z,39.31
2018-03-16T17:36:58.007Z,40.25
2018-03-16T17:39:27.398Z,40.14
2018-03-16T17:41:56.906Z,39.87
2018-03-16T17:44:28.301Z,39.47
2018-03-16T17:46:57.834Z,40.42
2018-03-16T17:49:28.108Z,40.41
2018-03-16T17:51:58.851Z,40.20
2018-03-16T17:54:28.599Z,39.93
2018-03-16T17:56:57.992Z,39.62
2018-03-16T17:59:27.312Z,39.45
2018-03-16T18:01:57.082Z,39.56
2018-03-16T18:04:27.444Z,39.52
2018-03-16T18:06:58.231Z,39.50
2018-03-16T18:09:27.573Z,39.36
2018-03-16T18:11:57.138Z,39.22
2018-03-16T18:14:26.609Z,39.31
2018-03-16T18:16:56.159Z,39.33
2018-03-16T18:19:25.374Z,39.28
2018-03-16T18:21:54.477Z,39.14
2018-03-16T18:24:23.757Z,39.14
2018-03-16T18:26:52.981Z,39.15
2018-03-16T18:29:22.174Z,39.36
2018-03-16T18:37:20.655Z,39.79
2018-03-16T18:39:49.748Z,39.55
2018-03-16T18:42:19.316Z,39.56
2018-03-16T18:44:48.737Z,39.62
2018-03-16T18:47:17.905Z,39.60
2018-03-16T18:52:16.430Z,39.78
2018-03-16T18:54:45.716Z,39.92
2018-03-16T18:57:15.410Z,39.80
2018-03-16T18:59:44.841Z,39.75
2018-03-16T19:02:14.152Z,39.76
2018-03-16T19:04:43.354Z,39.92
2018-03-16T19:09:27.380Z,40.40
2018-03-16T19:11:56.965Z,40.30
2018-03-16T19:14:26.278Z,40.20
2018-03-16T19:16:55.314Z,39.98
2018-03-16T19:19:24.564Z,39.63
2018-03-16T19:21:54.577Z,39.61
2018-03-16T19:24:23.912Z,39.36
2018-03-16T19:26:53.232Z,39.40
2018-03-16T19:29:22.734Z,39.21
2018-03-16T19:31:51.978Z,39.10
2018-03-16T19:36:54.614Z,38.68
2018-03-16T19:41:37.905Z,38.53
2018-03-16T19:44:07.260Z,38.60
2018-03-16T19:46:36.506Z,38.72
2018-03-16T19:51:33.698Z,38.64
2018-03-16T19:54:02.916Z,38.71
2018-03-16T19:56:32.412Z,38.51
2018-03-16T19:59:02.115Z,38.43
2018-03-16T20:03:53.452Z,38.49
2018-03-16T20:06:22.703Z,38.69
2018-03-16T20:08:52.169Z,38.99
2018-03-16T20:11:21.829Z,39.03
2018-03-16T20:13:51.961Z,38.82
2018-03-16T20:16:21.056Z,38.53
2018-03-16T20:18:50.305Z,38.62
2018-03-16T20:21:19.582Z,38.69
2018-03-16T20:23:48.655Z,38.69
2018-03-16T20:26:18.157Z,38.74
2018-03-16T20:28:47.085Z,38.53
2018-03-16T20:31:16.284Z,38.78
2018-03-16T20:36:20.349Z,38.29
2018-03-16T20:38:49.452Z,38.19
2018-03-16T20:41:18.480Z,38.32
2018-03-16T20:43:47.711Z,38.23
2018-03-16T20:46:16.815Z,38.12
2018-03-16T20:48:46.440Z,38.32
2018-03-16T20:51:15.752Z,38.35
2018-03-16T20:53:44.987Z,38.54
2018-03-16T20:56:14.295Z,38.46
2018-03-16T20:58:43.575Z,38.48
2018-03-16T21:01:12.915Z,38.35
2018-03-16T21:03:42.142Z,38.50
2018-03-16T21:06:11.746Z,38.83
2018-03-16T21:08:40.828Z,38.95
2018-03-16T21:13:36.076Z,39.13
2018-03-16T21:16:05.139Z,38.94
2018-03-16T21:18:34.535Z,38.87
2018-03-16T21:21:03.662Z,38.79
2018-03-16T21:23:32.884Z,38.38
2018-03-16T21:26:02.268Z,38.36
2018-03-16T21:28:31.591Z,38.36
2018-03-16T21:31:01.101Z,38.51
2018-03-16T21:33:30.335Z,38.46
2018-03-16T21:35:59.492Z,38.34
2018-03-16T21:38:28.708Z,38.11
2018-03-16T21:40:57.994Z,38.03
2018-03-16T21:43:27.437Z,38.03
2018-03-16T21:45:56.672Z,38.11
2018-03-16T21:48:25.531Z,37.82
2018-03-16T21:50:54.847Z,37.70
2018-03-16T21:53:23.818Z,37.69
2018-03-16T21:55:53.175Z,37.76
2018-03-16T21:58:22.383Z,37.77
2018-03-16T22:00:51.792Z,37.95
2018-03-16T22:03:36.204Z,37.85
2018-03-16T22:06:05.104Z,37.98
2018-03-16T22:08:34.464Z,37.97
2018-03-16T22:11:03.772Z,37.90
2018-03-16T22:13:32.957Z,37.76
2018-03-16T22:16:02.462Z,37.65
2018-03-16T22:18:31.883Z,37.58
2018-03-16T22:21:01.442Z,37.76
2018-03-16T22:23:30.885Z,37.79
2018-03-16T22:26:00.022Z,37.79
2018-03-16T22:30:43.239Z,37.78
2018-03-16T22:33:12.621Z,37.96
2018-03-16T22:35:41.702Z,38.06
2018-03-16T22:38:11.134Z,38.14
2018-03-16T22:40:40.408Z,38.17
2018-03-16T22:43:09.330Z,38.04
2018-03-16T22:45:38.418Z,38.06
2018-03-16T22:48:08.011Z,38.13
2018-03-16T22:50:37.270Z,38.14
2018-03-16T22:53:06.427Z,38.33
2018-03-16T22:55:35.812Z,38.54
2018-03-16T23:00:21.957Z,38.63
2018-03-16T23:02:51.482Z,38.62
2018-03-16T23:05:20.937Z,38.71
2018-03-16T23:07:49.916Z,38.60
2018-03-16T23:10:19.278Z,38.63
2018-03-16T23:12:48.705Z,38.54
2018-03-16T23:15:18.190Z,38.49
2018-03-16T23:17:47.672Z,38.35
2018-03-16T23:20:16.870Z,38.35
2018-03-16T23:22:46.091Z,38.40
2018-03-16T23:25:16.790Z,38.55
2018-03-16T23:27:46.428Z,38.74
2018-03-16T23:30:15.758Z,38.76
2018-03-16T23:32:45.630Z,38.62
2018-03-16T23:35:15.091Z,38.63
2018-03-16T23:37:45.094Z,38.64
2018-03-16T23:40:14.166Z,38.73
2018-03-16T23:42:43.225Z,38.81
2018-03-16T23:45:12.735Z,38.98
2018-03-16T23:47:42.155Z,38.74
2018-03-16T23:50:11.431Z,38.63
2018-03-16T23:52:40.598Z,38.59
2018-03-16T23:55:09.736Z,38.60
2018-03-16T23:57:38.751Z,38.59
